createdAt,value
2018-01-12T00:00:14.410Z,67.45
2018-01-12T00:01:14.418Z,67.35
2018-01-12T00:02:14.964Z,67.74
2018-01-12T00:03:14.500Z,67.26
2018-01-12T00:04:14.433Z,67.74
2018-01-12T00:05:14.461Z,68.13
2018-01-12T00:06:14.490Z,68.13
2018-01-12T00:07:14.540Z,68.03
2018-01-12T00:08:14.901Z,68.22
2018-01-12T00:09:14.582Z,68.22
2018-01-12T00:10:14.618Z,68.13
2018-01-12T00:11:14.645Z,68.13
2018-01-12T00:12:14.677Z,68.32
2018-01-12T00:13:14.708Z,68.13
2018-01-12T00:14:15.086Z,68.13
2018-01-12T00:15:14.767Z,68.13
2018-01-12T00:16:14.798Z,68.13
2018-01-12T00:17:14.837Z,68.22
2018-01-12T00:18:14.859Z,68.41
2018-01-12T00:19:14.889Z,68.22
2018-01-12T00:20:15.275Z,68.32
2018-01-12T00:21:15.609Z,68.41
2018-01-12T00:22:14.986Z,68.32
2018-01-12T00:23:15.012Z,68.32
2018-01-12T00:24:15.040Z,68.13
2018-01-12T00:25:15.085Z,68.13
2018-01-12T00:26:15.457Z,68.13
2018-01-12T00:27:15.135Z,68.41
2018-01-12T00:28:15.164Z,68.41
2018-01-12T00:29:15.194Z,68.32
2018-01-12T00:30:15.234Z,68.13
2018-01-12T00:31:15.258Z,68.22
2018-01-12T00:32:15.289Z,68.13
2018-01-12T00:33:15.668Z,68.70
2018-01-12T00:34:15.360Z,68.41
2018-01-12T00:35:15.439Z,68.70
2018-01-12T00:36:15.510Z,68.13
2018-01-12T00:37:15.441Z,68.13
2018-01-12T00:38:15.476Z,68.32
2018-01-12T00:39:15.502Z,68.60
2018-01-12T00:40:15.879Z,68.32
2018-01-12T00:41:15.561Z,68.32
2018-01-12T00:42:15.595Z,68.32
2018-01-12T00:43:15.632Z,68.60
2018-01-12T00:44:15.661Z,68.32
2018-01-12T00:45:15.692Z,68.60
2018-01-12T00:46:15.765Z,68.41
2018-01-12T00:48:16.128Z,68.32
2018-01-12T00:49:15.805Z,68.41
2018-01-12T00:51:15.918Z,68.41
2018-01-12T00:52:15.903Z,67.93
2018-01-12T00:53:15.928Z,68.41
2018-01-12T00:54:15.965Z,68.51
2018-01-12T00:55:16.341Z,68.51
2018-01-12T00:56:16.159Z,68.70
2018-01-12T00:57:16.049Z,68.60
2018-01-12T00:58:16.091Z,68.60
2018-01-12T00:59:16.110Z,68.41
2018-01-12T01:00:16.161Z,68.80
2018-01-12T01:01:16.174Z,68.60
2018-01-12T01:02:16.553Z,68.60
2018-01-12T01:03:16.234Z,68.70
2018-01-12T01:04:16.274Z,68.70
2018-01-12T01:05:16.300Z,68.80
2018-01-12T01:06:16.327Z,68.70
2018-01-12T01:07:16.364Z,68.60
2018-01-12T01:08:16.436Z,68.60
2018-01-12T01:09:16.773Z,68.60
2018-01-12T01:10:16.450Z,68.60
2018-01-12T01:11:16.487Z,68.22
2018-01-12T01:12:16.509Z,68.32
2018-01-12T01:13:16.539Z,68.13
2018-01-12T01:15:16.600Z,68.13
2018-01-12T01:16:16.983Z,68.22
2018-01-12T01:17:16.668Z,68.13
2018-01-12T01:18:16.696Z,68.41
2018-01-12T01:19:16.723Z,68.41
2018-01-12T01:20:16.751Z,68.41
2018-01-12T01:22:16.813Z,68.41
2018-01-12T01:23:17.195Z,68.32
2018-01-12T01:24:16.875Z,68.32
2018-01-12T01:25:16.924Z,68.32
2018-01-12T01:26:16.944Z,68.32
2018-01-12T01:27:16.966Z,68.32
2018-01-12T01:28:17.049Z,68.41
2018-01-12T01:29:17.039Z,68.32
2018-01-12T01:30:17.409Z,68.32
2018-01-12T01:31:17.090Z,68.32
2018-01-12T01:32:17.117Z,68.51
2018-01-12T01:33:17.163Z,68.32
2018-01-12T01:34:17.198Z,68.22
2018-01-12T01:35:17.224Z,68.51
2018-01-12T01:36:17.241Z,68.13
2018-01-12T01:37:17.630Z,68.13
2018-01-12T01:38:17.308Z,68.13
2018-01-12T01:39:17.334Z,68.22
2018-01-12T01:40:17.365Z,68.41
2018-01-12T01:41:17.397Z,68.41
2018-01-12T01:42:17.424Z,68.41
2018-01-12T01:43:17.477Z,68.03
2018-01-12T01:44:17.786Z,68.22
2018-01-12T01:45:17.520Z,68.51
2018-01-12T01:46:17.571Z,68.32
2018-01-12T01:47:17.580Z,68.13
2018-01-12T01:48:17.611Z,68.41
2018-01-12T01:49:17.638Z,68.32
2018-01-12T01:50:17.671Z,68.32
2018-01-12T01:51:18.056Z,68.13
2018-01-12T01:52:17.756Z,68.13
2018-01-12T01:53:17.770Z,68.13
2018-01-12T01:54:17.794Z,68.22
2018-01-12T01:55:17.828Z,68.13
2018-01-12T01:56:17.853Z,68.22
2018-01-12T01:57:19.125Z,68.32
2018-01-12T01:58:18.273Z,68.13
2018-01-12T01:59:17.945Z,68.03
2018-01-12T02:00:17.990Z,68.03
2018-01-12T02:01:18.053Z,68.22
2018-01-12T02:03:18.072Z,68.22
2018-01-12T02:04:18.100Z,68.22
2018-01-12T02:05:18.489Z,68.13
2018-01-12T02:06:18.227Z,68.32
2018-01-12T02:07:18.202Z,68.51
2018-01-12T02:08:18.257Z,68.60
2018-01-12T02:09:18.251Z,68.60
2018-01-12T02:10:18.288Z,68.60
2018-01-12T02:11:18.312Z,68.22
2018-01-12T02:12:19.843Z,68.22
2018-01-12T02:13:19.163Z,68.22
2018-01-12T02:14:19.341Z,67.93
2018-01-12T02:15:18.430Z,68.03
2018-01-12T02:16:18.478Z,68.03
2018-01-12T02:17:18.501Z,68.03
2018-01-12T02:18:18.523Z,68.22
2018-01-12T02:19:18.906Z,67.83
2018-01-12T02:20:18.588Z,68.99
2018-01-12T02:21:18.661Z,68.80
2018-01-12T02:22:18.644Z,68.22
2018-01-12T02:23:18.675Z,68.03
2018-01-12T02:24:19.450Z,68.03
2018-01-12T02:25:19.119Z,68.03
2018-01-12T02:26:18.782Z,68.03
2018-01-12T02:27:18.796Z,68.41
2018-01-12T02:28:18.845Z,68.60
2018-01-12T02:29:18.863Z,68.70
2018-01-12T02:30:19.161Z,68.51
2018-01-12T02:31:19.270Z,68.60
2018-01-12T02:32:18.996Z,68.51
2018-01-12T02:33:18.981Z,68.51
2018-01-12T02:34:19.061Z,68.70
2018-01-12T02:35:19.040Z,68.70
2018-01-12T02:36:19.070Z,68.70
2018-01-12T02:37:19.458Z,68.70
2018-01-12T02:38:19.134Z,68.51
2018-01-12T02:39:19.167Z,68.51
2018-01-12T02:40:20.074Z,68.60
2018-01-12T02:41:19.232Z,68.51
2018-01-12T02:42:19.257Z,68.51
2018-01-12T02:43:19.288Z,69.09
2018-01-12T02:44:19.664Z,68.99
2018-01-12T02:45:19.352Z,69.18
2018-01-12T02:46:19.378Z,69.09
2018-01-12T02:47:19.412Z,68.51
2018-01-12T02:48:19.437Z,68.70
2018-01-12T02:49:19.468Z,68.80
2018-01-12T02:50:19.499Z,68.51
2018-01-12T02:51:19.880Z,68.70
2018-01-12T02:52:19.561Z,68.70
2018-01-12T02:53:19.591Z,68.51
2018-01-12T02:54:19.631Z,68.90
2018-01-12T02:55:19.655Z,68.80
2018-01-12T02:56:20.616Z,68.51
2018-01-12T02:57:19.721Z,68.70
2018-01-12T02:58:20.101Z,68.70
2018-01-12T02:59:19.778Z,68.90
2018-01-12T03:00:19.863Z,68.70
2018-01-12T03:01:19.835Z,69.18
2018-01-12T03:03:19.903Z,68.70
2018-01-12T03:04:19.974Z,68.70
2018-01-12T03:05:20.306Z,68.51
2018-01-12T03:06:20.003Z,68.70
2018-01-12T03:07:20.025Z,68.60
2018-01-12T03:08:20.056Z,68.70
2018-01-12T03:09:20.087Z,68.80
2018-01-12T03:10:20.109Z,68.70
2018-01-12T03:11:20.138Z,68.67
2018-01-12T03:12:20.519Z,68.60
2018-01-12T03:14:20.230Z,68.22
2018-01-12T03:15:20.263Z,68.60
2018-01-12T03:16:20.290Z,68.51
2018-01-12T03:17:20.368Z,68.51
2018-01-12T03:18:20.355Z,68.67
2018-01-12T03:19:20.752Z,68.70
2018-01-12T03:20:20.425Z,68.70
2018-01-12T03:21:20.446Z,68.57
2018-01-12T03:22:20.528Z,68.80
2018-01-12T03:23:20.505Z,68.70
2018-01-12T03:24:20.537Z,68.51
2018-01-12T03:25:20.566Z,68.80
2018-01-12T03:26:20.947Z,68.80
2018-01-12T03:27:20.628Z,68.41
2018-01-12T03:28:20.747Z,68.57
2018-01-12T03:29:20.739Z,68.51
2018-01-12T03:30:20.724Z,68.70
2018-01-12T03:31:20.750Z,68.51
2018-01-12T03:32:20.781Z,68.51
2018-01-12T03:33:21.166Z,68.80
2018-01-12T03:34:20.844Z,68.41
2018-01-12T03:35:20.881Z,68.76
2018-01-12T03:36:20.909Z,68.60
2018-01-12T03:37:20.942Z,68.76
2018-01-12T03:38:20.964Z,68.70
2018-01-12T03:39:21.000Z,68.70
2018-01-12T03:40:21.376Z,68.38
2018-01-12T03:41:21.053Z,68.60
2018-01-12T03:42:21.084Z,68.60
2018-01-12T03:43:21.119Z,68.67
2018-01-12T03:44:21.155Z,68.19
2018-01-12T03:45:21.173Z,68.96
2018-01-12T03:46:21.207Z,68.22
2018-01-12T03:47:21.590Z,68.19
2018-01-12T03:48:21.266Z,68.38
2018-01-12T03:49:21.302Z,68.38
2018-01-12T03:50:21.328Z,68.38
2018-01-12T03:51:21.375Z,68.67
2018-01-12T03:52:21.389Z,68.19
2018-01-12T03:53:21.549Z,68.41
2018-01-12T03:54:21.873Z,68.19
2018-01-12T03:55:21.481Z,68.51
2018-01-12T03:56:21.969Z,69.06
2018-01-12T03:57:21.598Z,69.06
2018-01-12T03:58:21.569Z,68.86
2018-01-12T03:59:21.602Z,68.96
2018-01-12T04:00:21.682Z,69.06
2018-01-12T04:01:21.961Z,69.44
2018-01-12T04:02:21.692Z,68.96
2018-01-12T04:03:21.722Z,69.44
2018-01-12T04:04:21.750Z,69.18
2018-01-12T04:05:21.784Z,69.28
2018-01-12T04:06:21.827Z,69.24
2018-01-12T04:07:21.845Z,69.38
2018-01-12T04:08:22.272Z,69.34
2018-01-12T04:09:21.928Z,69.47
2018-01-12T04:10:22.240Z,69.57
2018-01-12T04:11:21.965Z,69.24
2018-01-12T04:12:21.994Z,69.15
2018-01-12T04:13:22.034Z,68.96
2018-01-12T04:14:22.408Z,69.15
2018-01-12T04:15:22.118Z,69.06
2018-01-12T04:16:22.115Z,68.60
2018-01-12T04:17:22.150Z,68.51
2018-01-12T04:18:22.181Z,68.60
2018-01-12T04:19:22.209Z,68.76
2018-01-12T04:20:22.594Z,68.99
2018-01-12T04:21:22.269Z,68.86
2018-01-12T04:22:22.308Z,68.76
2018-01-12T04:23:22.369Z,68.86
2018-01-12T04:24:22.369Z,68.96
2018-01-12T04:25:22.399Z,68.67
2018-01-12T04:26:22.770Z,69.15
2018-01-12T04:27:22.458Z,68.86
2018-01-12T04:28:22.489Z,68.96
2018-01-12T04:29:22.510Z,68.76
2018-01-12T04:30:22.576Z,68.76
2018-01-12T04:31:22.575Z,68.80
2018-01-12T04:32:22.601Z,68.38
2018-01-12T04:33:22.989Z,68.90
2018-01-12T04:34:22.665Z,69.06
2018-01-12T04:35:22.708Z,68.67
2018-01-12T04:36:22.734Z,68.96
2018-01-12T04:37:22.752Z,69.06
2018-01-12T04:38:22.784Z,68.96
2018-01-12T04:39:22.818Z,68.96
2018-01-12T04:40:23.151Z,69.15
2018-01-12T04:41:22.877Z,68.67
2018-01-12T04:42:22.910Z,68.57
2018-01-12T04:43:22.945Z,68.51
2018-01-12T04:44:22.970Z,68.70
2018-01-12T04:45:23.000Z,68.48
2018-01-12T04:46:23.037Z,68.51
2018-01-12T04:47:23.436Z,68.57
2018-01-12T04:48:23.169Z,68.67
2018-01-12T04:49:23.132Z,68.86
2018-01-12T04:50:23.308Z,68.51
2018-01-12T04:51:23.186Z,68.51
2018-01-12T04:52:23.259Z,68.48
2018-01-12T04:53:23.241Z,68.48
2018-01-12T04:54:23.673Z,68.80
2018-01-12T04:55:23.302Z,68.57
2018-01-12T04:56:23.367Z,68.76
2018-01-12T04:57:23.361Z,68.48
2018-01-12T04:58:23.393Z,68.67
2018-01-12T04:59:23.544Z,68.67
2018-01-12T05:00:23.454Z,68.67
2018-01-12T05:01:23.835Z,68.67
2018-01-12T05:02:23.513Z,68.76
2018-01-12T05:03:23.544Z,68.57
2018-01-12T05:04:23.574Z,68.70
2018-01-12T05:05:23.614Z,68.67
2018-01-12T05:06:23.636Z,68.70
2018-01-12T05:07:23.730Z,68.90
2018-01-12T05:08:23.698Z,68.67
2018-01-12T05:09:23.741Z,68.67
2018-01-12T05:10:23.757Z,68.48
2018-01-12T05:11:23.817Z,68.70
2018-01-12T05:12:23.818Z,68.67
2018-01-12T05:13:23.853Z,68.76
2018-01-12T05:14:24.232Z,68.67
2018-01-12T05:15:24.071Z,68.76
2018-01-12T05:16:23.936Z,68.76
2018-01-12T05:17:23.978Z,68.48
2018-01-12T05:18:24.010Z,68.67
2018-01-12T05:19:24.030Z,68.67
2018-01-12T05:20:24.063Z,68.67
2018-01-12T05:21:24.445Z,68.86
2018-01-12T05:22:24.124Z,68.60
2018-01-12T05:23:24.157Z,68.76
2018-01-12T05:24:24.181Z,68.86
2018-01-12T05:25:24.313Z,68.38
2018-01-12T05:26:24.249Z,68.80
2018-01-12T05:27:24.278Z,68.76
2018-01-12T05:28:24.665Z,68.67
2018-01-12T05:29:24.335Z,68.48
2018-01-12T05:30:24.365Z,68.67
2018-01-12T05:32:24.429Z,68.57
2018-01-12T05:33:24.458Z,68.57
2018-01-12T05:34:24.487Z,68.67
2018-01-12T05:35:24.870Z,68.09
2018-01-12T05:36:24.567Z,68.48
2018-01-12T05:37:24.581Z,68.67
2018-01-12T05:38:24.616Z,68.76
2018-01-12T05:39:24.654Z,68.67
2018-01-12T05:40:24.673Z,68.86
2018-01-12T05:41:24.999Z,68.57
2018-01-12T05:42:24.738Z,68.76
2018-01-12T05:43:24.760Z,68.76
2018-01-12T05:44:24.805Z,68.51
2018-01-12T05:45:24.821Z,69.15
2018-01-12T05:46:24.858Z,68.86
2018-01-12T05:47:25.237Z,69.06
2018-01-12T05:48:24.930Z,69.06
2018-01-12T05:50:24.973Z,69.44
2018-01-12T05:51:25.007Z,68.76
2018-01-12T05:52:25.037Z,69.06
2018-01-12T05:53:25.426Z,69.24
2018-01-12T05:54:25.095Z,69.34
2018-01-12T05:55:25.130Z,69.15
2018-01-12T05:56:25.156Z,69.06
2018-01-12T05:57:25.189Z,69.06
2018-01-12T05:58:25.221Z,68.86
2018-01-12T05:59:25.273Z,69.15
2018-01-12T06:00:25.655Z,68.76
2018-01-12T06:01:25.352Z,68.96
2018-01-12T06:02:25.361Z,68.86
2018-01-12T06:04:25.406Z,69.24
2018-01-12T06:05:25.464Z,68.67
2018-01-12T06:06:25.469Z,68.57
2018-01-12T06:07:25.842Z,68.76
2018-01-12T06:08:25.522Z,68.67
2018-01-12T06:09:25.550Z,68.76
2018-01-12T06:10:25.613Z,68.76
2018-01-12T06:11:25.619Z,68.76
2018-01-12T06:12:25.692Z,68.76
2018-01-12T06:13:25.726Z,68.67
2018-01-12T06:14:26.068Z,68.76
2018-01-12T06:15:25.732Z,68.67
2018-01-12T06:17:25.798Z,69.15
2018-01-12T06:18:25.826Z,68.67
2018-01-12T06:19:25.858Z,69.09
2018-01-12T06:20:25.989Z,68.57
2018-01-12T06:22:26.307Z,68.67
2018-01-12T06:23:25.978Z,68.76
2018-01-12T06:24:26.015Z,68.67
2018-01-12T06:25:26.047Z,68.57
2018-01-12T06:26:26.073Z,68.67
2018-01-12T06:27:26.109Z,68.48
2018-01-12T06:28:26.132Z,68.67
2018-01-12T06:29:26.510Z,68.67
2018-01-12T06:30:26.198Z,68.57
2018-01-12T06:31:26.227Z,68.57
2018-01-12T06:32:26.302Z,68.67
2018-01-12T06:33:26.286Z,68.86
2018-01-12T06:34:26.333Z,69.15
2018-01-12T06:35:27.247Z,68.67
2018-01-12T06:36:26.740Z,68.86
2018-01-12T06:37:26.454Z,69.15
2018-01-12T06:38:26.451Z,69.15
2018-01-12T06:39:26.464Z,68.76
2018-01-12T06:40:26.498Z,68.76
2018-01-12T06:41:26.524Z,68.67
2018-01-12T06:42:26.556Z,68.57
2018-01-12T06:43:26.889Z,68.76
2018-01-12T06:44:26.637Z,68.57
2018-01-12T06:45:26.649Z,68.19
2018-01-12T06:46:26.682Z,68.57
2018-01-12T06:47:26.714Z,68.57
2018-01-12T06:48:26.736Z,68.48
2018-01-12T06:49:26.766Z,68.67
2018-01-12T06:50:27.154Z,68.48
2018-01-12T06:51:26.834Z,68.48
2018-01-12T06:52:26.858Z,68.48
2018-01-12T06:53:26.903Z,68.57
2018-01-12T06:54:26.921Z,68.67
2018-01-12T06:55:26.950Z,68.67
2018-01-12T06:56:26.990Z,68.76
2018-01-12T06:57:27.334Z,68.38
2018-01-12T06:58:27.046Z,68.57
2018-01-12T06:59:27.118Z,68.57
2018-01-12T07:00:27.102Z,68.57
2018-01-12T07:01:27.138Z,68.19
2018-01-12T07:02:27.163Z,68.19
2018-01-12T07:03:27.195Z,68.48
2018-01-12T07:04:27.584Z,68.19
2018-01-12T07:05:27.259Z,68.80
2018-01-12T07:06:27.286Z,68.19
2018-01-12T07:07:27.316Z,68.38
2018-01-12T07:08:27.406Z,67.80
2018-01-12T07:09:27.390Z,68.29
2018-01-12T07:10:27.463Z,68.38
2018-01-12T07:11:27.797Z,68.38
2018-01-12T07:12:27.479Z,68.09
2018-01-12T07:13:27.509Z,68.19
2018-01-12T07:14:27.539Z,68.19
2018-01-12T07:15:27.560Z,68.29
2018-01-12T07:16:27.591Z,68.29
2018-01-12T07:17:27.624Z,68.38
2018-01-12T07:18:27.999Z,68.29
2018-01-12T07:19:27.693Z,68.19
2018-01-12T07:20:27.714Z,68.67
2018-01-12T07:21:27.742Z,68.38
2018-01-12T07:22:27.778Z,68.38
2018-01-12T07:23:27.804Z,68.09
2018-01-12T07:24:27.843Z,68.38
2018-01-12T07:26:28.249Z,68.76
2018-01-12T07:27:27.934Z,68.86
2018-01-12T07:28:27.954Z,68.48
2018-01-12T07:29:27.987Z,68.57
2018-01-12T07:30:28.021Z,68.57
2018-01-12T07:31:28.049Z,68.57
2018-01-12T07:32:28.086Z,68.57
2018-01-12T07:33:28.473Z,68.19
2018-01-12T07:34:28.191Z,68.29
2018-01-12T07:35:28.171Z,68.48
2018-01-12T07:36:28.208Z,68.19
2018-01-12T07:39:28.642Z,68.76
2018-01-12T07:40:28.326Z,67.99
2018-01-12T07:41:28.351Z,68.29
2018-01-12T07:42:28.384Z,68.09
2018-01-12T07:43:28.540Z,68.67
2018-01-12T07:44:28.464Z,68.29
2018-01-12T07:45:29.057Z,68.19
2018-01-12T07:46:28.866Z,68.29
2018-01-12T07:47:28.590Z,68.38
2018-01-12T07:48:28.567Z,68.48
2018-01-12T07:49:28.603Z,68.48
2018-01-12T07:50:28.674Z,68.57
2018-01-12T07:51:28.661Z,68.67
2018-01-12T07:52:28.695Z,68.09
2018-01-12T07:53:29.079Z,68.48
2018-01-12T07:54:28.746Z,68.48
2018-01-12T07:55:28.783Z,68.09
2018-01-12T07:56:28.809Z,68.29
2018-01-12T07:57:28.849Z,67.99
2018-01-12T07:58:28.871Z,68.19
2018-01-12T07:59:29.250Z,68.29
2018-01-12T08:00:28.928Z,68.29
2018-01-12T08:01:28.970Z,68.19
2018-01-12T08:02:29.009Z,68.09
2018-01-12T08:03:29.026Z,68.19
2018-01-12T08:04:29.056Z,68.19
2018-01-12T08:05:29.436Z,68.09
2018-01-12T08:07:29.142Z,68.29
2018-01-12T08:08:29.172Z,68.38
2018-01-12T08:09:29.203Z,68.09
2018-01-12T08:10:29.242Z,68.29
2018-01-12T08:11:29.616Z,67.90
2018-01-12T08:12:29.308Z,67.99
2018-01-12T08:13:29.328Z,67.90
2018-01-12T08:15:29.425Z,67.99
2018-01-12T08:16:29.417Z,67.90
2018-01-12T08:17:29.446Z,68.09
2018-01-12T08:19:29.815Z,68.09
2018-01-12T08:20:29.540Z,67.99
2018-01-12T08:21:29.571Z,67.61
2018-01-12T08:22:29.608Z,67.61
2018-01-12T08:23:29.632Z,67.71
2018-01-12T08:25:30.042Z,67.80
2018-01-12T08:26:29.735Z,67.61
2018-01-12T08:27:29.758Z,67.61
2018-01-12T08:28:29.784Z,67.80
2018-01-12T08:29:29.813Z,67.71
2018-01-12T08:30:29.843Z,67.61
2018-01-12T08:31:29.881Z,67.80
2018-01-12T08:32:30.272Z,67.80
2018-01-12T08:33:29.937Z,67.90
2018-01-12T08:34:29.964Z,67.80
2018-01-12T08:35:29.997Z,67.71
2018-01-12T08:36:30.033Z,67.90
2018-01-12T08:37:30.059Z,67.80
2018-01-12T08:38:30.089Z,67.61
2018-01-12T08:39:30.474Z,67.42
2018-01-12T08:40:30.147Z,67.80
2018-01-12T08:41:30.245Z,67.61
2018-01-12T08:42:30.212Z,67.42
2018-01-12T08:46:30.705Z,67.71
2018-01-12T08:47:30.372Z,67.42
2018-01-12T08:48:30.400Z,67.32
2018-01-12T08:49:30.438Z,67.22
2018-01-12T08:50:30.457Z,67.42
2018-01-12T08:51:30.487Z,67.32
2018-01-12T08:52:30.569Z,67.32
2018-01-12T08:53:30.933Z,67.51
2018-01-12T08:54:30.583Z,67.32
2018-01-12T08:55:30.607Z,67.42
2018-01-12T08:56:30.707Z,67.71
2018-01-12T08:57:30.676Z,67.61
2018-01-12T08:58:30.706Z,67.61
2018-01-12T08:59:30.991Z,67.61
2018-01-12T09:00:31.107Z,67.61
2018-01-12T09:01:30.791Z,67.61
2018-01-12T09:02:30.823Z,67.71
2018-01-12T09:03:30.922Z,67.80
2018-01-12T09:04:30.891Z,67.80
2018-01-12T09:06:31.302Z,67.80
2018-01-12T09:07:30.995Z,67.42
2018-01-12T09:08:31.006Z,67.71
2018-01-12T09:09:31.036Z,67.61
2018-01-12T09:10:31.106Z,67.22
2018-01-12T09:11:31.094Z,67.13
2018-01-12T09:12:31.128Z,67.22
2018-01-12T09:13:31.605Z,67.22
2018-01-12T09:14:31.242Z,67.22
2018-01-12T09:15:31.232Z,67.03
2018-01-12T09:16:31.304Z,67.32
2018-01-12T09:17:31.279Z,67.42
2018-01-12T09:18:31.318Z,67.13
2018-01-12T09:19:31.745Z,67.32
2018-01-12T09:20:31.430Z,67.42
2018-01-12T09:21:31.409Z,67.42
2018-01-12T09:22:31.437Z,67.13
2018-01-12T09:23:31.493Z,67.32
2018-01-12T09:24:31.499Z,66.94
2018-01-12T09:26:31.923Z,67.13
2018-01-12T09:27:31.590Z,67.03
2018-01-12T09:28:31.701Z,67.03
2018-01-12T09:29:31.653Z,66.94
2018-01-12T09:30:31.737Z,66.94
2018-01-12T09:31:31.719Z,66.94
2018-01-12T09:32:32.089Z,66.84
2018-01-12T09:33:31.786Z,66.84
2018-01-12T09:34:31.851Z,67.13
2018-01-12T09:35:31.826Z,66.94
2018-01-12T09:36:31.858Z,67.07
2018-01-12T09:37:31.910Z,66.94
2018-01-12T09:38:32.271Z,66.94
2018-01-12T09:39:31.952Z,66.84
2018-01-12T09:40:32.014Z,67.03
2018-01-12T09:41:32.179Z,66.84
2018-01-12T09:42:32.045Z,67.03
2018-01-12T09:43:32.078Z,66.84
2018-01-12T09:44:32.105Z,66.74
2018-01-12T09:45:32.485Z,66.65
2018-01-12T09:46:32.222Z,66.74
2018-01-12T09:47:32.201Z,66.65
2018-01-12T09:48:32.230Z,66.74
2018-01-12T09:49:32.287Z,66.68
2018-01-12T09:50:32.296Z,66.46
2018-01-12T09:51:32.326Z,66.68
2018-01-12T09:52:32.698Z,66.84
2018-01-12T09:53:32.387Z,66.84
2018-01-12T09:54:32.406Z,66.65
2018-01-12T09:55:32.443Z,66.39
2018-01-12T09:56:32.473Z,66.46
2018-01-12T09:57:32.529Z,66.39
2018-01-12T09:58:32.531Z,66.49
2018-01-12T09:59:32.916Z,66.58
2018-01-12T10:00:32.647Z,66.46
2018-01-12T10:01:32.625Z,66.46
2018-01-12T10:05:33.250Z,66.68
2018-01-12T10:06:32.782Z,66.65
2018-01-12T10:07:32.812Z,66.65
2018-01-12T10:08:33.048Z,66.65
2018-01-12T10:09:32.868Z,66.68
2018-01-12T10:10:32.918Z,66.65
2018-01-12T10:11:32.963Z,66.74
2018-01-12T10:12:33.313Z,66.65
2018-01-12T10:13:32.997Z,66.88
2018-01-12T10:14:33.397Z,66.74
2018-01-12T10:17:33.163Z,66.65
2018-01-12T10:18:33.144Z,66.84
2018-01-12T10:19:33.532Z,66.94
2018-01-12T10:20:33.206Z,66.84
2018-01-12T10:22:33.299Z,66.39
2018-01-12T10:23:33.319Z,66.74
2018-01-12T10:24:33.326Z,66.74
2018-01-12T10:25:33.361Z,66.84
2018-01-12T10:26:33.744Z,66.84
2018-01-12T10:27:33.417Z,66.78
2018-01-12T10:28:33.453Z,66.74
2018-01-12T10:29:33.489Z,66.74
2018-01-12T10:30:33.526Z,66.55
2018-01-12T10:31:33.554Z,66.65
2018-01-12T10:32:33.589Z,66.65
2018-01-12T10:33:34.162Z,66.10
2018-01-12T10:34:33.843Z,66.20
2018-01-12T10:35:33.669Z,66.39
2018-01-12T10:37:33.737Z,66.27
2018-01-12T10:38:33.759Z,66.17
2018-01-12T10:39:34.142Z,66.07
2018-01-12T10:41:34.470Z,66.30
2018-01-12T10:42:34.078Z,66.20
2018-01-12T10:43:33.914Z,66.17
2018-01-12T10:44:33.941Z,65.97
2018-01-12T10:45:34.524Z,66.36
2018-01-12T10:46:34.008Z,66.36
2018-01-12T10:48:34.061Z,65.91
2018-01-12T10:49:34.090Z,65.78
2018-01-12T10:50:34.125Z,66.01
2018-01-12T10:51:34.511Z,65.78
2018-01-12T10:52:34.185Z,66.01
2018-01-12T10:53:34.216Z,65.91
2018-01-12T10:54:34.271Z,66.10
2018-01-12T10:55:34.295Z,65.81
2018-01-12T10:56:34.312Z,66.07
2018-01-12T10:57:34.404Z,65.81
2018-01-12T10:59:34.700Z,66.10
2018-01-12T11:01:34.484Z,65.97
2018-01-12T11:02:34.740Z,65.97
2018-01-12T11:03:34.722Z,65.88
2018-01-12T11:05:35.138Z,66.01
2018-01-12T11:07:34.648Z,66.10
2018-01-12T11:08:34.685Z,65.81
2018-01-12T11:09:35.319Z,65.81
2018-01-12T11:10:34.740Z,66.07
2018-01-12T11:12:35.163Z,65.91
2018-01-12T11:14:34.863Z,65.72
2018-01-12T11:16:34.920Z,66.01
2018-01-12T11:18:54.538Z,65.78
2018-01-12T11:20:35.051Z,65.81
2018-01-12T11:21:35.076Z,65.72
2018-01-12T11:22:35.106Z,66.10
2018-01-12T11:24:35.522Z,66.01
2018-01-12T11:25:35.452Z,66.01
2018-01-12T11:28:35.305Z,65.63
2018-01-12T11:32:35.770Z,65.81
2018-01-12T11:35:35.507Z,65.33
2018-01-12T11:36:35.544Z,65.24
2018-01-12T11:37:35.564Z,65.33
2018-01-12T11:38:35.855Z,65.33
2018-01-12T11:40:36.011Z,65.43
2018-01-12T11:41:35.690Z,65.43
2018-01-12T11:43:36.174Z,65.33
2018-01-12T11:45:35.812Z,65.53
2018-01-12T11:46:35.848Z,65.33
2018-01-12T11:49:42.549Z,65.43
2018-01-12T11:51:37.458Z,65.43
2018-01-12T11:53:36.263Z,65.53
2018-01-12T11:55:36.469Z,65.53
2018-01-12T11:57:36.229Z,65.43
2018-01-12T11:58:36.844Z,65.53
2018-01-12T12:03:02.364Z,65.53
2018-01-12T12:06:36.458Z,65.72
2018-01-12T12:11:37.565Z,65.72
2018-01-12T12:13:36.678Z,65.63
2018-01-12T12:15:36.936Z,65.63
2018-01-12T12:16:37.374Z,65.63
2018-01-12T12:17:36.853Z,65.53
2018-01-12T12:18:37.375Z,65.53
2018-01-12T12:20:36.886Z,65.63
2018-01-12T12:22:37.148Z,65.53
2018-01-12T12:23:36.999Z,65.24
2018-01-12T12:25:37.392Z,65.72
2018-01-12T12:28:37.146Z,65.63
2018-01-12T12:29:37.851Z,65.43
2018-01-12T12:35:37.700Z,65.43
2018-01-12T12:36:37.981Z,65.33
2018-01-12T12:37:37.616Z,65.43
2018-01-12T12:38:37.439Z,65.53
2018-01-12T12:40:38.157Z,65.33
2018-01-12T12:45:38.006Z,65.53
2018-01-12T12:48:37.765Z,65.05
2018-01-12T12:49:37.777Z,65.14
2018-01-12T12:50:37.808Z,64.95
2018-01-12T12:52:38.218Z,65.14
2018-01-12T12:53:37.897Z,65.14
2018-01-12T12:54:37.938Z,65.05
2018-01-12T12:55:44.278Z,64.95
2018-01-12T12:59:38.637Z,65.33
2018-01-12T13:00:38.113Z,65.14
2018-01-12T13:02:38.176Z,65.24
2018-01-12T13:03:38.405Z,65.24
2018-01-12T13:06:38.604Z,65.14
2018-01-12T13:08:38.416Z,65.05
2018-01-12T13:09:38.591Z,65.05
2018-01-12T13:10:38.466Z,64.95
2018-01-12T13:11:38.455Z,65.05
2018-01-12T13:12:38.534Z,64.86
2018-01-12T13:13:39.000Z,65.14
2018-01-12T13:14:38.543Z,64.95
2018-01-12T13:15:38.586Z,65.14
2018-01-12T13:16:38.608Z,65.05
2018-01-12T13:17:39.293Z,65.14
2018-01-12T13:18:38.887Z,64.95
2018-01-12T13:19:38.702Z,64.95
2018-01-12T13:21:39.721Z,65.05
2018-01-12T13:22:38.916Z,65.14
2018-01-12T13:23:38.850Z,65.05
2018-01-12T13:24:39.459Z,65.14
2018-01-12T13:25:38.887Z,64.86
2018-01-12T13:27:39.449Z,65.05
2018-01-12T13:29:39.209Z,65.05
2018-01-12T13:35:39.743Z,65.53
2018-01-12T13:36:39.418Z,65.14
2018-01-12T13:37:39.855Z,65.11
2018-01-12T13:38:39.286Z,65.53
2018-01-12T13:41:39.964Z,65.14
2018-01-12T13:42:39.656Z,65.14
2018-01-12T13:43:39.510Z,65.05
2018-01-12T13:44:39.465Z,65.14
2018-01-12T13:51:40.065Z,65.53
2018-01-12T13:53:39.962Z,65.14
2018-01-12T13:55:39.802Z,65.43
2018-01-12T13:56:39.906Z,65.01
2018-01-12T13:59:40.439Z,65.20
2018-01-12T14:01:46.255Z,65.24
2018-01-12T14:05:40.460Z,65.24
2018-01-12T14:06:40.189Z,64.95
2018-01-12T14:08:40.479Z,65.11
2018-01-12T14:09:40.281Z,65.14
2018-01-12T14:10:40.266Z,65.14
2018-01-12T14:11:40.294Z,65.11
2018-01-12T14:12:40.635Z,65.14
2018-01-12T14:14:40.633Z,65.01
2018-01-12T14:16:40.453Z,65.20
2018-01-12T14:17:40.535Z,65.20
2018-01-12T14:20:40.987Z,65.01
2018-01-12T14:21:40.614Z,65.14
2018-01-12T14:22:40.682Z,65.01
2018-01-12T14:23:40.927Z,65.24
2018-01-12T14:25:40.726Z,65.40
2018-01-12T14:26:40.802Z,65.72
2018-01-12T14:27:41.140Z,65.14
2018-01-12T14:28:40.877Z,65.05
2018-01-12T14:32:40.998Z,65.30
2018-01-12T14:33:41.602Z,65.11
2018-01-12T14:36:41.608Z,65.24
2018-01-12T14:37:41.090Z,65.20
2018-01-12T14:38:41.123Z,65.33
2018-01-12T14:39:41.150Z,65.24
2018-01-12T14:47:44.808Z,64.95
2018-01-12T14:49:41.736Z,64.92
2018-01-12T14:53:42.136Z,65.43
2018-01-12T14:56:41.723Z,64.82
2018-01-12T14:59:42.167Z,65.20
2018-01-12T15:01:41.870Z,65.24
2018-01-12T15:02:41.873Z,65.11
2018-01-12T15:04:41.966Z,64.82
2018-01-12T15:05:41.951Z,65.33
2018-01-12T15:10:42.656Z,65.20
2018-01-12T15:11:48.450Z,64.95
2018-01-12T15:12:43.640Z,64.92
2018-01-12T15:13:43.612Z,65.20
2018-01-12T15:19:43.352Z,65.11
2018-01-12T15:20:43.057Z,65.24
2018-01-12T15:26:43.708Z,65.30
2018-01-12T15:28:42.677Z,65.40
2018-01-12T15:31:43.082Z,65.11
2018-01-12T15:34:43.187Z,65.11
2018-01-12T15:35:42.873Z,64.92
2018-01-12T15:36:45.985Z,65.01
2018-01-12T15:37:43.052Z,65.20
2018-01-12T15:38:43.257Z,65.20
2018-01-12T15:42:44.921Z,65.01